Tuesday, January 22, 2019, 4:40 PM EST
Back to Local

KPVC, Provincetown, Provincetown Municipal Airport

Location: Provincetown, MA, United States Lat: 42.067
Local Time: 4:40 PM EST (21:40 GMT) Lon: -70.217
Time Zone: US/Eastern Elev: 6 ft

Show me the last for .
Show Decoded

2019-01-22 15:56 METAR KPVC 222056Z AUTO 31014G20KT 10SM CLR M03/M13 A3051 RMK AO2 SLP332
                 T10281128 53015 FZRANO =
2019-01-22 14:56 METAR KPVC 221956Z AUTO 31017G26KT 10SM CLR M03/M13 A3049 RMK AO2 PK WND
                 31026/1953 SLP325 T10281128 FZRANO =
2019-01-22 13:56 METAR KPVC 221856Z AUTO 31016G24KT 10SM CLR M03/M13 A3049 RMK AO2 SLP323
                 T10331133 FZRANO =
2019-01-22 12:56 METAR KPVC 221756Z AUTO 31016G22KT 10SM CLR M04/M12 A3047 RMK AO2 PK WND
                 32026/1738 SLP318 T10391122 11039 21100 51006 FZRANO =
2019-01-22 11:56 METAR KPVC 221656Z AUTO 32018G27KT 10SM CLR M05/M12 A3047 RMK AO2 PK WND
                 32027/1650 SLP317 T10501122 FZRANO =
2019-01-22 10:56 METAR KPVC 221556Z AUTO 31021G27KT 10SM CLR M06/M12 A3047 RMK AO2 PK WND
                 29031/1504 SLP318 T10611122 FZRANO =
2019-01-22 09:56 METAR KPVC 221456Z AUTO 30024G29KT 10SM CLR M07/M13 A3045 RMK AO2 PK WND
                 31033/1358 SLP311 T10721128 51038 FZRANO =
2019-01-22 08:56 METAR KPVC 221356Z AUTO 31025G32KT 10SM CLR M08/M13 A3042 RMK AO2 PK WND
                 32033/1332 SLP299 T10781128 FZRANO =
2019-01-22 07:56 METAR KPVC 221256Z AUTO 31023G29KT 10SM CLR M09/M13 A3039 RMK AO2 PK WND
                 31032/1206 SLP290 T10891133 FZRANO =
2019-01-22 06:56 METAR KPVC 221156Z AUTO 32025G32KT 10SM CLR M10/M14 A3034 RMK AO2 PK WND
                 32037/1128 SLP273 T11001139 11100 21122 53046 FZRANO =
2019-01-22 05:56 METAR KPVC 221056Z AUTO 32026G32KT 10SM FEW030 M10/M14 A3028 RMK AO2 PK WND
                 31036/1020 SLP255 T11001144 FZRANO =
2019-01-22 04:56 METAR KPVC 220956Z AUTO 32025G34KT 10SM CLR M11/M14 A3023 RMK AO2 PK WND
                 32035/0946 SLP237 T11061144 FZRANO =
2019-01-22 03:56 METAR KPVC 220856Z AUTO 32023G33KT 10SM SCT029 M11/M15 A3020 RMK AO2 PK WND
                 32035/0803 SLP227 T11111150 51019 FZRANO =
2019-01-22 03:53 METAR KPVC 220853Z AUTO 32026G33KT 10SM SCT027 M11/M15 A3020 RMK AO2 PK WND
                 32035/0803 FZRANO =
2019-01-22 02:56 METAR KPVC 220756Z AUTO 31020G33KT 10SM OVC027 M12/M15 A3018 RMK AO2 PK WND
                 30037/0726 SLP218 T11171150 FZRANO =
2019-01-22 01:56 METAR KPVC 220656Z AUTO 31023G36KT 10SM BKN025 M12/M16 A3015 RMK AO2 PK WND
                 31036/0648 SLP207 T11171156 FZRANO =
2019-01-22 00:56 METAR KPVC 220556Z AUTO 31023G33KT 10SM BKN027 OVC033 M12/M16 A3011 RMK AO2 PK
                 WND 31034/0512 SNE03 SLP196 P0000 60000 T11221156 11122 21139 53018 FZRANO =
2019-01-21 23:56 METAR KPVC 220456Z AUTO 31023G33KT 9SM -SN SCT020 BKN026 OVC034 M12/M16 A3010
                 RMK AO2 PK WND 31035/0441 SLP191 P0000 T11221156 410941139 FZRANO =
2019-01-21 22:56 METAR KPVC 220356Z AUTO 32027G36KT 7SM -SN BKN021 OVC027 M12/M15 A3006 RMK AO2
                 PK WND 33036/0353 SLP180 P0000 T11221150 FZRANO =
2019-01-21 22:46 METAR KPVC 220346Z AUTO 33025G33KT 6SM -SN BKN021 OVC027 M13/M16 A3006 RMK AO2
                 PK WND 31036/0336 P0000 FZRANO =
2019-01-21 21:56 METAR KPVC 220256Z AUTO 32022G37KT 2 1/2SM -SN BKN017 OVC025 M13/M16 A3003 RMK
                 AO2 PK WND 33038/0245 VIS 1 3/4V3 SLP169 P0000 60000 T11281156 53023 FZRANO =
2019-01-21 21:38 METAR KPVC 220238Z AUTO 33029G37KT 1 3/4SM -SN BKN020 OVC026 M13/M16 A3002 RMK
                 AO2 PK WND 32037/0232 P0000 FZRANO =
2019-01-21 20:56 METAR KPVC 220156Z AUTO 33028G37KT 4SM -SN BKN020 OVC025 M13/M16 A2999 RMK AO2
                 PK WND 33039/0125 SLP156 P0000 T11331161 FZRANO =
2019-01-21 20:51 METAR KPVC 220151Z AUTO 33024G38KT 3SM -SN BKN020 BKN026 OVC031 M13/M16 A3000
                 RMK AO2 PK WND 33039/0125 P0000 FZRANO =
2019-01-21 20:35 METAR KPVC 220135Z AUTO 33027G36KT 2 1/2SM -SN BR BKN020 OVC027 M13/M16 A2999
                 RMK AO2 PK WND 33039/0125 VIS 1 3/4V3 P0000 FZRANO =
2019-01-21 20:22 METAR KPVC 220122Z AUTO 33026G34KT 1 3/4SM -SN BR OVC019 M14/M16 A2999 RMK AO2
                 PK WND 32035/0112 P0000 FZRANO =
2019-01-21 19:56 METAR KPVC 220056Z AUTO 32028G39KT 2SM -SN BR SCT016 BKN022 OVC028 M14/M16 A2996
                 RMK AO2 PK WND 31039/0047 VIS 1 1/4V3 SLP146 P0000 T11391161 FZRANO =
2019-01-21 18:56 METAR KPVC 212356Z AUTO 32027G39KT 1 1/2SM -SN BR SCT014 OVC021 M14/M16 A2993
                 RMK AO2 PK WND 32039/2356 VIS 3/4V3 SLP136 P0000 60000 T11391161 11133 21139
                 53039 FZRANO =
2019-01-21 18:43 METAR KPVC 212343Z AUTO 32028G38KT 1 1/4SM -SN BR BKN014 OVC019 M13/M16 A2992
                 RMK AO2 PK WND 32038/2341 VIS 3/4V2 1/2 P0000 FZRANO =
2019-01-21 18:20 METAR KPVC 212320Z AUTO 31026G34KT 3/4SM -SN BKN014 OVC019 M14/M17 A2990 RMK AO2
                 PK WND 32037/2307 P0000 FZRANO =
2019-01-21 18:17 METAR KPVC 212317Z AUTO 30026G31KT 3/4SM -SN OVC016 M14/M17 A2990 RMK AO2 PK WND
                 32037/2307 P0000 FZRANO =
2019-01-21 18:14 METAR KPVC 212314Z AUTO 31024G37KT 1SM -SN BKN014 OVC020 M14/M17 A2990 RMK AO2
                 PK WND 32037/2307 P0000 FZRANO =
2019-01-21 17:56 METAR KPVC 212256Z AUTO 31022G30KT 1 1/4SM -SN BR OVC018 M14/M16 A2989 RMK AO2
                 PK WND 32032/2221 SLP121 P0000 T11391161 FZRANO =
2019-01-21 17:37 METAR KPVC 212237Z AUTO 30025G31KT 1 1/4SM -SN OVC019 M13/M16 A2988 RMK AO2 PK
                 WND 32032/2221 P0000 FZRANO =
2019-01-21 17:12 METAR KPVC 212212Z AUTO 31021G32KT 2SM -SN BKN021 OVC026 M14/M17 A2987 RMK AO2
                 PK WND 29032/2208 VIS 1 1/2V3 P0000 FZRANO =
2019-01-21 16:56 METAR KPVC 212156Z AUTO 30027G35KT 1SM -SN BKN021 OVC026 M14/M17 A2985 RMK AO2
                 PK WND 30035/2150 SLP108 P0000 T11391167 FZRANO =

Support USWX by starting your Amazon purchase here.